Portada
METAR-TAF:

METAR-TAF

Aeropuertos :

Meierwik

Glücksburg, Alemania

latitud: 54-50N, longitud: 009-30E, altitud: 27 m

Observación

El informe se hizo hace 44 minutos, a las 22:20 UTC
Viento 7 kt del norte-noroeste
Temperatura 10°C
Humedad 71%
Presión 1031 hPa
Visibilidad 10 km o más

METAR: ETGG 282220Z AUTO 34007KT 9999 // ////// 10/05 Q1031 ///

Hora: 01:04 (23:04 UTC)


TAF: falta

Observaciones y pronósticos meteorológicos de más de 4000 aeropuertos (mensajes METAR y TAF).

Los puntos amarillos y rojos representan las estaciones disponibles.

Ponga el ratón en el punto deseado para ver el nombre de la estación.

Haga clic para ver las observaciones y los pronósticos meteorológicos.

Para cambiar el mapa : haga clic en los botones verdes con una cruz de color negro para hacer un zoom, en el botón verde con un guión para alejar o en las flechas verdes para mapas adyacentes.


METAR-TAF: